sensor_id;sensor_type;location;lat;lon;timestamp;pressure;altitude;pressure_sealevel;temperature;humidity
19457;BME280;9867;48.094;11.478;2022-07-12T00:00:30;95828.78;;;17.37;100.00
19457;BME280;9867;48.094;11.478;2022-07-12T00:03:01;95815.75;;;17.26;100.00
19457;BME280;9867;48.094;11.478;2022-07-12T00:05:29;95819.41;;;17.36;100.00
19457;BME280;9867;48.094;11.478;2022-07-12T00:07:56;95815.66;;;17.21;100.00
19457;BME280;9867;48.094;11.478;2022-07-12T00:10:26;95815.88;;;17.19;100.00
19457;BME280;9867;48.094;11.478;2022-07-12T00:12:54;95816.66;;;17.20;100.00
19457;BME280;9867;48.094;11.478;2022-07-12T00:15:22;95821.81;;;17.08;100.00
19457;BME280;9867;48.094;11.478;2022-07-12T00:17:50;95820.44;;;17.05;100.00
19457;BME280;9867;48.094;11.478;2022-07-12T00:20:18;95820.72;;;17.16;100.00
19457;BME280;9867;48.094;11.478;2022-07-12T00:22:46;95821.38;;;17.11;100.00
19457;BME280;9867;48.094;11.478;2022-07-12T00:25:14;95823.44;;;17.21;100.00
19457;BME280;9867;48.094;11.478;2022-07-12T00:27:44;95816.75;;;17.13;100.00
19457;BME280;9867;48.094;11.478;2022-07-12T00:30:12;95819.03;;;17.21;100.00
19457;BME280;9867;48.094;11.478;2022-07-12T00:32:40;95817.13;;;17.28;100.00
19457;BME280;9867;48.094;11.478;2022-07-12T00:35:08;95813.53;;;17.29;100.00
19457;BME280;9867;48.094;11.478;2022-07-12T00:37:36;95822.22;;;17.23;100.00
19457;BME280;9867;48.094;11.478;2022-07-12T00:40:05;95814.25;;;17.07;100.00
19457;BME280;9867;48.094;11.478;2022-07-12T00:42:35;95817.84;;;17.05;100.00
19457;BME280;9867;48.094;11.478;2022-07-12T00:45:06;95822.94;;;17.12;100.00
19457;BME280;9867;48.094;11.478;2022-07-12T00:47:36;95818.41;;;17.08;100.00
19457;BME280;9867;48.094;11.478;2022-07-12T00:50:09;95826.25;;;17.19;100.00
19457;BME280;9867;48.094;11.478;2022-07-12T00:52:37;95822.88;;;17.19;100.00
19457;BME280;9867;48.094;11.478;2022-07-12T00:55:07;95827.69;;;17.15;100.00
19457;BME280;9867;48.094;11.478;2022-07-12T00:57:36;95818.75;;;16.99;100.00
19457;BME280;9867;48.094;11.478;2022-07-12T01:00:07;95826.03;;;16.91;100.00
19457;BME280;9867;48.094;11.478;2022-07-12T01:02:36;95817.81;;;16.94;100.00
19457;BME280;9867;48.094;11.478;2022-07-12T01:05:05;95816.13;;;16.69;100.00
19457;BME280;9867;48.094;11.478;2022-07-12T01:07:34;95815.63;;;16.54;100.00
19457;BME280;9867;48.094;11.478;2022-07-12T01:10:03;95814.38;;;16.45;100.00
19457;BME280;9867;48.094;11.478;2022-07-12T01:12:31;95814.94;;;16.29;100.00
19457;BME280;9867;48.094;11.478;2022-07-12T01:14:59;95807.09;;;15.74;100.00
19457;BME280;9867;48.094;11.478;2022-07-12T01:17:29;95802.06;;;15.48;100.00
19457;BME280;9867;48.094;11.478;2022-07-12T01:19:58;95807.97;;;15.61;100.00
19457;BME280;9867;48.094;11.478;2022-07-12T01:22:30;95805.13;;;15.69;100.00
19457;BME280;9867;48.094;11.478;2022-07-12T01:25:01;95812.25;;;15.43;100.00
19457;BME280;9867;48.094;11.478;2022-07-12T01:27:30;95814.19;;;15.54;100.00
19457;BME280;9867;48.094;11.478;2022-07-12T01:30:00;95804.28;;;15.76;100.00
19457;BME280;9867;48.094;11.478;2022-07-12T01:32:29;95809.50;;;15.94;100.00
19457;BME280;9867;48.094;11.478;2022-07-12T01:34:58;95814.53;;;16.07;100.00
19457;BME280;9867;48.094;11.478;2022-07-12T01:37:31;95818.84;;;15.95;100.00
19457;BME280;9867;48.094;11.478;2022-07-12T01:40:03;95812.09;;;15.94;100.00
19457;BME280;9867;48.094;11.478;2022-07-12T01:42:31;95814.03;;;15.98;100.00
19457;BME280;9867;48.094;11.478;2022-07-12T01:45:00;95807.38;;;15.84;100.00
19457;BME280;9867;48.094;11.478;2022-07-12T01:47:30;95801.47;;;15.77;100.00
19457;BME280;9867;48.094;11.478;2022-07-12T01:49:59;95804.78;;;15.84;100.00
19457;BME280;9867;48.094;11.478;2022-07-12T01:52:27;95806.69;;;15.95;100.00
19457;BME280;9867;48.094;11.478;2022-07-12T01:54:57;95809.66;;;16.17;100.00
19457;BME280;9867;48.094;11.478;2022-07-12T01:57:26;95829.59;;;16.17;100.00
19457;BME280;9867;48.094;11.478;2022-07-12T01:59:55;95822.09;;;16.09;100.00
19457;BME280;9867;48.094;11.478;2022-07-12T02:02:25;95826.75;;;16.00;100.00
19457;BME280;9867;48.094;11.478;2022-07-12T02:04:53;95817.59;;;15.79;100.00
19457;BME280;9867;48.094;11.478;2022-07-12T02:07:21;95809.19;;;15.59;100.00
19457;BME280;9867;48.094;11.478;2022-07-12T02:09:50;95817.06;;;15.71;100.00
19457;BME280;9867;48.094;11.478;2022-07-12T02:12:18;95816.47;;;15.68;100.00
19457;BME280;9867;48.094;11.478;2022-07-12T02:14:48;95802.44;;;15.58;100.00
19457;BME280;9867;48.094;11.478;2022-07-12T02:17:16;95801.66;;;15.57;100.00
19457;BME280;9867;48.094;11.478;2022-07-12T02:19:44;95814.94;;;15.86;100.00
19457;BME280;9867;48.094;11.478;2022-07-12T02:22:12;95811.50;;;15.67;100.00
19457;BME280;9867;48.094;11.478;2022-07-12T02:24:40;95798.84;;;15.59;100.00
19457;BME280;9867;48.094;11.478;2022-07-12T02:27:08;95800.84;;;15.57;100.00
19457;BME280;9867;48.094;11.478;2022-07-12T02:29:36;95800.91;;;15.44;100.00
19457;BME280;9867;48.094;11.478;2022-07-12T02:32:06;95801.25;;;15.54;100.00
19457;BME280;9867;48.094;11.478;2022-07-12T02:34:33;95804.44;;;15.56;100.00
19457;BME280;9867;48.094;11.478;2022-07-12T02:37:01;95805.97;;;15.63;100.00
19457;BME280;9867;48.094;11.478;2022-07-12T02:39:29;95812.00;;;15.57;100.00
19457;BME280;9867;48.094;11.478;2022-07-12T02:41:57;95810.03;;;15.46;100.00
19457;BME280;9867;48.094;11.478;2022-07-12T02:44:26;95810.59;;;15.23;100.00
19457;BME280;9867;48.094;11.478;2022-07-12T02:46:54;95810.31;;;15.07;100.00
19457;BME280;9867;48.094;11.478;2022-07-12T02:49:23;95808.75;;;14.99;100.00
19457;BME280;9867;48.094;11.478;2022-07-12T02:51:51;95810.34;;;14.93;100.00
19457;BME280;9867;48.094;11.478;2022-07-12T02:54:18;95816.69;;;15.04;100.00
19457;BME280;9867;48.094;11.478;2022-07-12T02:56:46;95803.59;;;14.92;100.00
19457;BME280;9867;48.094;11.478;2022-07-12T02:59:14;95805.53;;;15.04;100.00
19457;BME280;9867;48.094;11.478;2022-07-12T03:01:42;95808.91;;;15.11;100.00
19457;BME280;9867;48.094;11.478;2022-07-12T03:04:10;95803.38;;;15.00;100.00
19457;BME280;9867;48.094;11.478;2022-07-12T03:06:39;95798.44;;;14.92;100.00
19457;BME280;9867;48.094;11.478;2022-07-12T03:09:07;95808.56;;;14.94;100.00
19457;BME280;9867;48.094;11.478;2022-07-12T03:11:35;95805.75;;;15.02;100.00
19457;BME280;9867;48.094;11.478;2022-07-12T03:14:03;95811.75;;;14.89;100.00
19457;BME280;9867;48.094;11.478;2022-07-12T03:16:31;95814.00;;;14.86;100.00
19457;BME280;9867;48.094;11.478;2022-07-12T03:18:58;95807.88;;;14.67;100.00
19457;BME280;9867;48.094;11.478;2022-07-12T03:21:26;95809.72;;;14.60;100.00
19457;BME280;9867;48.094;11.478;2022-07-12T03:23:56;95810.75;;;14.52;100.00
19457;BME280;9867;48.094;11.478;2022-07-12T03:26:24;95819.88;;;14.55;100.00
19457;BME280;9867;48.094;11.478;2022-07-12T03:28:52;95819.47;;;14.58;100.00
19457;BME280;9867;48.094;11.478;2022-07-12T03:31:20;95813.25;;;14.72;100.00
19457;BME280;9867;48.094;11.478;2022-07-12T03:33:48;95814.22;;;14.78;100.00
19457;BME280;9867;48.094;11.478;2022-07-12T03:36:16;95814.81;;;14.80;100.00
19457;BME280;9867;48.094;11.478;2022-07-12T03:38:44;95818.59;;;14.71;100.00
19457;BME280;9867;48.094;11.478;2022-07-12T03:41:13;95820.44;;;14.63;100.00
19457;BME280;9867;48.094;11.478;2022-07-12T03:43:41;95820.06;;;14.60;100.00
19457;BME280;9867;48.094;11.478;2022-07-12T03:46:09;95824.63;;;14.58;100.00
19457;BME280;9867;48.094;11.478;2022-07-12T03:48:37;95824.63;;;14.58;100.00
19457;BME280;9867;48.094;11.478;2022-07-12T03:51:05;95817.69;;;14.58;100.00
19457;BME280;9867;48.094;11.478;2022-07-12T03:53:33;95826.16;;;14.65;100.00
19457;BME280;9867;48.094;11.478;2022-07-12T03:56:01;95831.56;;;14.64;100.00
19457;BME280;9867;48.094;11.478;2022-07-12T03:58:30;95835.91;;;14.70;100.00
19457;BME280;9867;48.094;11.478;2022-07-12T04:00:58;95835.31;;;14.68;100.00
19457;BME280;9867;48.094;11.478;2022-07-12T04:03:26;95829.53;;;14.66;100.00
19457;BME280;9867;48.094;11.478;2022-07-12T04:05:53;95836.19;;;14.93;100.00
19457;BME280;9867;48.094;11.478;2022-07-12T04:08:26;95843.81;;;14.82;100.00
19457;BME280;9867;48.094;11.478;2022-07-12T04:10:54;95842.84;;;14.76;100.00
19457;BME280;9867;48.094;11.478;2022-07-12T04:13:22;95848.41;;;14.66;100.00
19457;BME280;9867;48.094;11.478;2022-07-12T04:15:52;95842.25;;;14.74;100.00
19457;BME280;9867;48.094;11.478;2022-07-12T04:18:20;95843.03;;;14.75;100.00
19457;BME280;9867;48.094;11.478;2022-07-12T04:20:55;95848.59;;;14.78;100.00
19457;BME280;9867;48.094;11.478;2022-07-12T04:23:23;95847.97;;;14.83;100.00
19457;BME280;9867;48.094;11.478;2022-07-12T04:25:51;95848.88;;;15.01;100.00
19457;BME280;9867;48.094;11.478;2022-07-12T04:28:19;95847.81;;;15.16;100.00
19457;BME280;9867;48.094;11.478;2022-07-12T04:30:47;95847.38;;;15.25;100.00
19457;BME280;9867;48.094;11.478;2022-07-12T04:33:16;95857.91;;;15.24;100.00
19457;BME280;9867;48.094;11.478;2022-07-12T04:35:44;95849.16;;;15.25;100.00
19457;BME280;9867;48.094;11.478;2022-07-12T04:38:12;95851.66;;;15.38;100.00
19457;BME280;9867;48.094;11.478;2022-07-12T04:40:40;95844.50;;;15.40;100.00
19457;BME280;9867;48.094;11.478;2022-07-12T04:43:08;95849.63;;;15.47;100.00
19457;BME280;9867;48.094;11.478;2022-07-12T04:45:36;95852.22;;;15.47;100.00
19457;BME280;9867;48.094;11.478;2022-07-12T04:48:04;95847.06;;;15.40;100.00
19457;BME280;9867;48.094;11.478;2022-07-12T04:50:34;95849.81;;;15.52;100.00
19457;BME280;9867;48.094;11.478;2022-07-12T04:53:02;95848.47;;;15.74;100.00
19457;BME280;9867;48.094;11.478;2022-07-12T04:55:30;95849.56;;;15.85;100.00
19457;BME280;9867;48.094;11.478;2022-07-12T04:57:58;95851.44;;;16.02;100.00
19457;BME280;9867;48.094;11.478;2022-07-12T05:00:26;95847.19;;;16.08;100.00
19457;BME280;9867;48.094;11.478;2022-07-12T05:02:54;95852.63;;;16.25;100.00
19457;BME280;9867;48.094;11.478;2022-07-12T05:05:22;95856.44;;;16.22;100.00
19457;BME280;9867;48.094;11.478;2022-07-12T05:07:51;95854.00;;;16.27;100.00
19457;BME280;9867;48.094;11.478;2022-07-12T05:10:19;95860.63;;;15.98;100.00
19457;BME280;9867;48.094;11.478;2022-07-12T05:12:47;95860.28;;;16.13;100.00
19457;BME280;9867;48.094;11.478;2022-07-12T05:15:15;95855.91;;;15.89;100.00
19457;BME280;9867;48.094;11.478;2022-07-12T05:17:44;95859.25;;;15.96;100.00
19457;BME280;9867;48.094;11.478;2022-07-12T05:20:13;95866.84;;;15.91;100.00
19457;BME280;9867;48.094;11.478;2022-07-12T05:22:41;95868.19;;;16.00;100.00
19457;BME280;9867;48.094;11.478;2022-07-12T05:25:10;95865.88;;;16.10;100.00
19457;BME280;9867;48.094;11.478;2022-07-12T05:27:38;95863.22;;;15.98;100.00
19457;BME280;9867;48.094;11.478;2022-07-12T05:30:07;95866.00;;;15.97;100.00
19457;BME280;9867;48.094;11.478;2022-07-12T05:32:35;95873.22;;;15.88;100.00
19457;BME280;9867;48.094;11.478;2022-07-12T05:35:03;95871.34;;;15.77;100.00
19457;BME280;9867;48.094;11.478;2022-07-12T05:37:31;95868.56;;;15.79;100.00
19457;BME280;9867;48.094;11.478;2022-07-12T05:39:59;95860.44;;;15.68;100.00
19457;BME280;9867;48.094;11.478;2022-07-12T05:42:29;95874.94;;;15.76;100.00
19457;BME280;9867;48.094;11.478;2022-07-12T05:44:56;95861.94;;;15.83;100.00
19457;BME280;9867;48.094;11.478;2022-07-12T05:47:24;95868.44;;;15.92;100.00
19457;BME280;9867;48.094;11.478;2022-07-12T05:49:56;95865.97;;;16.03;100.00
19457;BME280;9867;48.094;11.478;2022-07-12T05:52:24;95886.41;;;16.30;100.00
19457;BME280;9867;48.094;11.478;2022-07-12T05:55:10;95887.59;;;16.34;100.00
19457;BME280;9867;48.094;11.478;2022-07-12T05:57:39;95887.53;;;16.41;100.00
19457;BME280;9867;48.094;11.478;2022-07-12T06:00:08;95891.22;;;16.51;100.00
19457;BME280;9867;48.094;11.478;2022-07-12T06:02:36;95897.75;;;16.54;100.00
19457;BME280;9867;48.094;11.478;2022-07-12T06:05:05;95903.72;;;16.54;100.00
19457;BME280;9867;48.094;11.478;2022-07-12T06:07:33;95899.69;;;16.58;100.00
19457;BME280;9867;48.094;11.478;2022-07-12T06:10:01;95906.66;;;16.64;100.00
19457;BME280;9867;48.094;11.478;2022-07-12T06:12:29;95909.41;;;16.88;100.00
19457;BME280;9867;48.094;11.478;2022-07-12T06:14:58;95909.59;;;17.04;100.00
19457;BME280;9867;48.094;11.478;2022-07-12T06:17:26;95903.69;;;17.16;100.00
19457;BME280;9867;48.094;11.478;2022-07-12T06:19:54;95904.63;;;17.21;100.00
19457;BME280;9867;48.094;11.478;2022-07-12T06:22:22;95904.75;;;17.26;100.00
19457;BME280;9867;48.094;11.478;2022-07-12T06:24:49;95907.44;;;17.20;100.00
19457;BME280;9867;48.094;11.478;2022-07-12T06:27:17;95911.94;;;17.24;100.00
19457;BME280;9867;48.094;11.478;2022-07-12T06:29:45;95905.47;;;17.33;100.00
19457;BME280;9867;48.094;11.478;2022-07-12T06:32:16;95902.69;;;17.47;100.00
19457;BME280;9867;48.094;11.478;2022-07-12T06:34:45;95907.06;;;17.64;100.00
19457;BME280;9867;48.094;11.478;2022-07-12T06:37:13;95913.75;;;17.54;100.00
19457;BME280;9867;48.094;11.478;2022-07-12T06:39:41;95902.16;;;17.56;100.00
19457;BME280;9867;48.094;11.478;2022-07-12T06:42:10;95917.13;;;17.72;100.00
19457;BME280;9867;48.094;11.478;2022-07-12T06:44:48;95916.94;;;17.86;100.00
19457;BME280;9867;48.094;11.478;2022-07-12T06:47:17;95915.38;;;17.85;100.00
19457;BME280;9867;48.094;11.478;2022-07-12T06:49:45;95914.25;;;17.62;100.00
19457;BME280;9867;48.094;11.478;2022-07-12T06:52:13;95914.13;;;17.57;100.00
19457;BME280;9867;48.094;11.478;2022-07-12T06:54:41;95908.06;;;17.63;100.00
19457;BME280;9867;48.094;11.478;2022-07-12T06:57:09;95914.91;;;17.88;100.00
19457;BME280;9867;48.094;11.478;2022-07-12T06:59:37;95913.25;;;18.05;100.00
19457;BME280;9867;48.094;11.478;2022-07-12T07:02:05;95918.56;;;18.22;100.00
19457;BME280;9867;48.094;11.478;2022-07-12T07:04:34;95913.69;;;18.02;100.00
19457;BME280;9867;48.094;11.478;2022-07-12T07:07:02;95913.16;;;18.12;100.00
19457;BME280;9867;48.094;11.478;2022-07-12T07:09:30;95915.88;;;18.17;100.00
19457;BME280;9867;48.094;11.478;2022-07-12T07:11:58;95906.06;;;18.30;100.00
19457;BME280;9867;48.094;11.478;2022-07-12T07:14:26;95914.28;;;18.27;100.00
19457;BME280;9867;48.094;11.478;2022-07-12T07:16:54;95912.38;;;18.46;100.00
19457;BME280;9867;48.094;11.478;2022-07-12T07:19:22;95920.06;;;18.53;100.00
19457;BME280;9867;48.094;11.478;2022-07-12T07:21:52;95909.88;;;18.51;100.00
19457;BME280;9867;48.094;11.478;2022-07-12T07:24:21;95907.19;;;18.58;100.00
19457;BME280;9867;48.094;11.478;2022-07-12T07:26:49;95920.97;;;18.58;100.00
19457;BME280;9867;48.094;11.478;2022-07-12T07:29:24;95923.91;;;18.50;100.00
19457;BME280;9867;48.094;11.478;2022-07-12T07:32:09;95919.63;;;18.67;100.00
19457;BME280;9867;48.094;11.478;2022-07-12T07:34:37;95923.88;;;18.97;100.00
19457;BME280;9867;48.094;11.478;2022-07-12T07:37:07;95925.22;;;18.99;100.00
19457;BME280;9867;48.094;11.478;2022-07-12T07:39:35;95913.59;;;18.90;100.00
19457;BME280;9867;48.094;11.478;2022-07-12T07:42:03;95929.41;;;19.12;100.00
19457;BME280;9867;48.094;11.478;2022-07-12T07:44:31;95925.28;;;19.28;100.00
19457;BME280;9867;48.094;11.478;2022-07-12T07:47:00;95933.59;;;19.41;100.00
19457;BME280;9867;48.094;11.478;2022-07-12T07:49:28;95933.66;;;19.30;100.00
19457;BME280;9867;48.094;11.478;2022-07-12T07:51:56;95928.22;;;19.31;100.00
19457;BME280;9867;48.094;11.478;2022-07-12T07:54:25;95931.94;;;19.35;100.00
19457;BME280;9867;48.094;11.478;2022-07-12T07:56:53;95925.50;;;19.66;100.00
19457;BME280;9867;48.094;11.478;2022-07-12T07:59:28;95932.63;;;19.88;100.00
19457;BME280;9867;48.094;11.478;2022-07-12T08:01:56;95934.16;;;19.84;100.00
19457;BME280;9867;48.094;11.478;2022-07-12T08:04:23;95947.41;;;19.82;100.00
19457;BME280;9867;48.094;11.478;2022-07-12T08:06:51;95938.69;;;19.77;100.00
19457;BME280;9867;48.094;11.478;2022-07-12T08:09:19;95938.63;;;19.88;100.00
19457;BME280;9867;48.094;11.478;2022-07-12T08:11:48;95940.34;;;20.28;100.00
19457;BME280;9867;48.094;11.478;2022-07-12T08:14:16;95925.47;;;20.62;100.00
19457;BME280;9867;48.094;11.478;2022-07-12T08:16:44;95936.75;;;21.06;100.00
19457;BME280;9867;48.094;11.478;2022-07-12T08:19:12;95935.66;;;21.02;100.00
19457;BME280;9867;48.094;11.478;2022-07-12T08:21:40;95940.84;;;20.80;100.00
19457;BME280;9867;48.094;11.478;2022-07-12T08:24:08;95941.81;;;20.57;100.00
19457;BME280;9867;48.094;11.478;2022-07-12T08:26:36;95942.44;;;20.14;100.00
19457;BME280;9867;48.094;11.478;2022-07-12T08:29:05;95941.34;;;20.10;100.00
19457;BME280;9867;48.094;11.478;2022-07-12T08:31:33;95940.50;;;19.59;100.00
19457;BME280;9867;48.094;11.478;2022-07-12T08:34:01;95942.19;;;19.82;100.00
19457;BME280;9867;48.094;11.478;2022-07-12T08:36:29;95947.97;;;20.01;100.00
19457;BME280;9867;48.094;11.478;2022-07-12T08:38:59;95929.28;;;20.54;100.00
19457;BME280;9867;48.094;11.478;2022-07-12T08:41:27;95955.00;;;20.84;100.00
19457;BME280;9867;48.094;11.478;2022-07-12T08:43:56;95946.81;;;20.75;100.00
19457;BME280;9867;48.094;11.478;2022-07-12T08:46:25;95949.34;;;20.70;100.00
19457;BME280;9867;48.094;11.478;2022-07-12T08:48:53;95949.63;;;21.13;100.00
19457;BME280;9867;48.094;11.478;2022-07-12T08:51:21;95960.19;;;21.01;100.00
19457;BME280;9867;48.094;11.478;2022-07-12T08:54:04;95977.94;;;20.65;100.00
19457;BME280;9867;48.094;11.478;2022-07-12T08:56:35;95957.84;;;20.83;100.00
19457;BME280;9867;48.094;11.478;2022-07-12T08:59:16;95957.81;;;20.99;100.00
19457;BME280;9867;48.094;11.478;2022-07-12T09:01:47;95953.31;;;20.95;100.00
19457;BME280;9867;48.094;11.478;2022-07-12T09:04:17;95953.38;;;21.00;100.00
19457;BME280;9867;48.094;11.478;2022-07-12T09:06:46;95962.97;;;20.94;100.00
19457;BME280;9867;48.094;11.478;2022-07-12T09:09:26;95954.53;;;21.09;100.00
19457;BME280;9867;48.094;11.478;2022-07-12T09:11:54;95957.13;;;21.48;100.00
19457;BME280;9867;48.094;11.478;2022-07-12T09:14:22;95951.78;;;21.37;100.00
19457;BME280;9867;48.094;11.478;2022-07-12T09:17:03;95952.84;;;20.81;100.00
19457;BME280;9867;48.094;11.478;2022-07-12T09:19:36;95960.34;;;21.33;100.00
19457;BME280;9867;48.094;11.478;2022-07-12T09:22:13;95959.34;;;21.88;100.00
19457;BME280;9867;48.094;11.478;2022-07-12T09:24:41;95955.00;;;22.25;100.00
19457;BME280;9867;48.094;11.478;2022-07-12T09:27:09;95948.31;;;22.39;99.71
19457;BME280;9867;48.094;11.478;2022-07-12T09:29:46;95966.13;;;22.10;100.00
19457;BME280;9867;48.094;11.478;2022-07-12T09:32:18;95963.91;;;21.70;100.00
19457;BME280;9867;48.094;11.478;2022-07-12T09:35:04;95966.25;;;21.23;100.00
19457;BME280;9867;48.094;11.478;2022-07-12T09:37:49;95968.25;;;22.14;100.00
19457;BME280;9867;48.094;11.478;2022-07-12T09:40:18;95969.56;;;22.48;100.00
19457;BME280;9867;48.094;11.478;2022-07-12T09:42:47;95972.34;;;22.73;100.00
19457;BME280;9867;48.094;11.478;2022-07-12T09:45:17;95969.19;;;22.34;100.00
19457;BME280;9867;48.094;11.478;2022-07-12T09:47:47;95978.44;;;22.42;99.44
19457;BME280;9867;48.094;11.478;2022-07-12T09:50:15;95978.28;;;22.59;100.00
19457;BME280;9867;48.094;11.478;2022-07-12T09:52:45;95965.66;;;22.51;98.43
19457;BME280;9867;48.094;11.478;2022-07-12T09:55:17;95983.66;;;22.42;100.00
19457;BME280;9867;48.094;11.478;2022-07-12T09:57:46;95982.34;;;22.13;100.00
19457;BME280;9867;48.094;11.478;2022-07-12T10:00:15;95983.56;;;22.32;100.00
19457;BME280;9867;48.094;11.478;2022-07-12T10:02:43;95981.75;;;22.05;100.00
19457;BME280;9867;48.094;11.478;2022-07-12T10:05:12;95990.88;;;22.03;100.00
19457;BME280;9867;48.094;11.478;2022-07-12T10:07:40;95992.31;;;22.16;100.00
19457;BME280;9867;48.094;11.478;2022-07-12T10:10:10;95987.22;;;22.31;100.00
19457;BME280;9867;48.094;11.478;2022-07-12T10:12:40;95992.88;;;22.23;100.00
19457;BME280;9867;48.094;11.478;2022-07-12T10:15:14;95975.75;;;22.37;100.00
19457;BME280;9867;48.094;11.478;2022-07-12T10:17:51;95975.22;;;22.72;99.88
19457;BME280;9867;48.094;11.478;2022-07-12T10:20:24;95987.22;;;22.63;100.00
19457;BME280;9867;48.094;11.478;2022-07-12T10:22:54;95980.69;;;22.65;100.00
19457;BME280;9867;48.094;11.478;2022-07-12T10:25:29;95982.56;;;22.75;100.00
19457;BME280;9867;48.094;11.478;2022-07-12T10:27:57;95981.09;;;22.52;98.97
19457;BME280;9867;48.094;11.478;2022-07-12T10:30:26;95979.38;;;23.05;100.00
19457;BME280;9867;48.094;11.478;2022-07-12T10:32:55;95973.59;;;23.03;92.80
19457;BME280;9867;48.094;11.478;2022-07-12T10:35:27;95978.69;;;23.25;97.74
19457;BME280;9867;48.094;11.478;2022-07-12T10:38:18;95985.72;;;23.19;100.00
19457;BME280;9867;48.094;11.478;2022-07-12T10:40:48;95980.94;;;22.64;99.80
19457;BME280;9867;48.094;11.478;2022-07-12T10:43:34;95991.16;;;22.65;100.00
19457;BME280;9867;48.094;11.478;2022-07-12T10:46:28;95974.09;;;22.58;99.60
19457;BME280;9867;48.094;11.478;2022-07-12T10:49:23;95984.41;;;23.11;100.00
19457;BME280;9867;48.094;11.478;2022-07-12T10:52:15;95976.13;;;23.45;100.00
19457;BME280;9867;48.094;11.478;2022-07-12T10:54:50;95987.63;;;23.39;93.19
19457;BME280;9867;48.094;11.478;2022-07-12T10:57:38;95974.41;;;23.71;95.05
19457;BME280;9867;48.094;11.478;2022-07-12T11:00:07;95971.91;;;23.39;91.90
19457;BME280;9867;48.094;11.478;2022-07-12T11:02:36;95983.41;;;22.43;100.00
19457;BME280;9867;48.094;11.478;2022-07-12T11:05:05;95970.28;;;22.38;98.59
19457;BME280;9867;48.094;11.478;2022-07-12T11:07:36;95981.56;;;23.23;97.26
19457;BME280;9867;48.094;11.478;2022-07-12T11:10:06;95977.22;;;23.49;92.31
19457;BME280;9867;48.094;11.478;2022-07-12T11:12:34;95979.66;;;23.71;91.26
19457;BME280;9867;48.094;11.478;2022-07-12T11:15:03;95977.59;;;23.88;89.09
19457;BME280;9867;48.094;11.478;2022-07-12T11:17:32;95972.38;;;23.21;95.60
19457;BME280;9867;48.094;11.478;2022-07-12T11:20:08;95981.53;;;22.76;100.00
19457;BME280;9867;48.094;11.478;2022-07-12T11:22:40;95986.34;;;22.52;100.00
19457;BME280;9867;48.094;11.478;2022-07-12T11:25:09;95975.50;;;23.18;98.33
19457;BME280;9867;48.094;11.478;2022-07-12T11:27:38;95972.09;;;23.90;91.55
19457;BME280;9867;48.094;11.478;2022-07-12T11:30:09;95968.91;;;23.67;91.24
19457;BME280;9867;48.094;11.478;2022-07-12T11:32:38;95976.00;;;23.09;94.76
19457;BME280;9867;48.094;11.478;2022-07-12T11:35:20;95968.59;;;22.96;95.61
19457;BME280;9867;48.094;11.478;2022-07-12T11:37:54;95965.44;;;22.89;100.00
19457;BME280;9867;48.094;11.478;2022-07-12T11:40:24;95955.94;;;23.40;98.59
19457;BME280;9867;48.094;11.478;2022-07-12T11:42:53;95954.06;;;24.34;78.49
19457;BME280;9867;48.094;11.478;2022-07-12T11:45:21;95951.16;;;24.20;73.24
19457;BME280;9867;48.094;11.478;2022-07-12T11:47:49;95956.63;;;23.83;79.02
19457;BME280;9867;48.094;11.478;2022-07-12T11:50:18;95964.25;;;23.12;92.13
19457;BME280;9867;48.094;11.478;2022-07-12T11:52:48;95973.00;;;22.54;95.36
19457;BME280;9867;48.094;11.478;2022-07-12T11:55:18;95958.00;;;22.39;98.29
19457;BME280;9867;48.094;11.478;2022-07-12T11:57:46;95963.28;;;22.12;100.00
19457;BME280;9867;48.094;11.478;2022-07-12T12:00:15;95965.34;;;22.10;100.00
19457;BME280;9867;48.094;11.478;2022-07-12T12:02:44;95964.72;;;22.30;100.00
19457;BME280;9867;48.094;11.478;2022-07-12T12:05:12;95958.13;;;22.59;89.37
19457;BME280;9867;48.094;11.478;2022-07-12T12:07:41;95944.09;;;23.12;91.18
19457;BME280;9867;48.094;11.478;2022-07-12T12:10:11;95951.78;;;23.44;80.06
19457;BME280;9867;48.094;11.478;2022-07-12T12:12:43;95950.59;;;23.88;80.62
19457;BME280;9867;48.094;11.478;2022-07-12T12:15:12;95944.88;;;24.06;70.08
19457;BME280;9867;48.094;11.478;2022-07-12T12:17:45;95940.94;;;24.19;68.62
19457;BME280;9867;48.094;11.478;2022-07-12T12:20:16;95941.44;;;24.61;65.25
19457;BME280;9867;48.094;11.478;2022-07-12T12:22:45;95939.91;;;24.40;68.48
19457;BME280;9867;48.094;11.478;2022-07-12T12:25:14;95945.91;;;24.66;68.47
19457;BME280;9867;48.094;11.478;2022-07-12T12:27:48;95951.44;;;24.64;67.95
19457;BME280;9867;48.094;11.478;2022-07-12T12:30:48;95945.16;;;24.40;67.81
19457;BME280;9867;48.094;11.478;2022-07-12T12:33:35;95954.31;;;24.78;66.80
19457;BME280;9867;48.094;11.478;2022-07-12T12:36:18;95946.44;;;24.73;63.74
19457;BME280;9867;48.094;11.478;2022-07-12T12:38:48;95957.97;;;24.77;62.65
19457;BME280;9867;48.094;11.478;2022-07-12T12:41:17;95935.06;;;25.13;62.84
19457;BME280;9867;48.094;11.478;2022-07-12T12:43:48;95944.13;;;25.41;66.49
19457;BME280;9867;48.094;11.478;2022-07-12T12:46:21;95945.03;;;25.11;65.83
19457;BME280;9867;48.094;11.478;2022-07-12T12:48:49;95945.13;;;24.20;68.16
19457;BME280;9867;48.094;11.478;2022-07-12T12:51:17;95939.41;;;24.33;72.37
19457;BME280;9867;48.094;11.478;2022-07-12T12:53:55;95940.44;;;24.42;71.37
19457;BME280;9867;48.094;11.478;2022-07-12T12:56:23;95944.06;;;24.10;67.57
19457;BME280;9867;48.094;11.478;2022-07-12T12:58:52;95939.13;;;24.29;66.88
19457;BME280;9867;48.094;11.478;2022-07-12T13:01:21;95939.63;;;24.62;64.16
19457;BME280;9867;48.094;11.478;2022-07-12T13:03:49;95924.94;;;25.40;61.94
19457;BME280;9867;48.094;11.478;2022-07-12T13:06:17;95926.13;;;25.14;61.72